createdAt,value
2022-09-30T00:01:39.923Z,1.42
2022-09-30T00:04:07.845Z,1.35
2022-09-30T00:06:35.277Z,1.42
2022-09-30T00:09:03.500Z,1.60
2022-09-30T00:11:32.279Z,1.38
2022-09-30T00:13:59.693Z,1.45
2022-09-30T00:16:28.507Z,1.70
2022-09-30T00:18:56.446Z,1.70
2022-09-30T00:21:23.911Z,1.75
2022-09-30T00:23:51.422Z,2.22
2022-09-30T00:26:20.744Z,3.42
2022-09-30T00:28:50.824Z,2.80
2022-09-30T00:31:19.732Z,3.10
2022-09-30T00:34:07.144Z,3.45
2022-09-30T00:36:34.910Z,3.08
2022-09-30T00:39:02.281Z,3.20
2022-09-30T00:41:29.641Z,3.42
2022-09-30T00:43:56.977Z,3.55
2022-09-30T00:46:33.156Z,3.00
2022-09-30T00:49:03.794Z,3.90
2022-09-30T00:51:33.492Z,3.47
2022-09-30T00:54:06.011Z,3.50
2022-09-30T00:56:35.403Z,3.70
2022-09-30T00:59:02.622Z,3.72
2022-09-30T01:01:31.566Z,3.78
2022-09-30T01:04:03.888Z,3.30
2022-09-30T01:06:31.205Z,3.35
2022-09-30T01:08:58.981Z,3.58
2022-09-30T01:11:27.708Z,3.70
2022-09-30T01:13:56.920Z,3.13
2022-09-30T01:16:32.548Z,3.28
2022-09-30T01:19:15.929Z,3.13
2022-09-30T01:21:52.484Z,3.33
2022-09-30T01:24:38.326Z,3.20
2022-09-30T01:27:11.561Z,3.00
2022-09-30T01:29:54.194Z,2.60
2022-09-30T01:32:34.238Z,2.65
2022-09-30T01:35:04.823Z,2.45
2022-09-30T01:37:44.618Z,2.90
2022-09-30T01:40:32.177Z,2.92
2022-09-30T01:43:00.256Z,2.65
2022-09-30T01:45:34.165Z,2.42
2022-09-30T01:48:23.803Z,2.58
2022-09-30T01:50:58.668Z,1.80
2022-09-30T01:56:01.517Z,2.10
2022-09-30T01:58:42.131Z,2.13
2022-09-30T02:01:12.681Z,2.38
2022-09-30T02:03:46.828Z,2.20
2022-09-30T02:06:16.506Z,1.88
2022-09-30T02:08:43.806Z,1.67
2022-09-30T02:11:16.182Z,1.95
2022-09-30T02:13:49.815Z,2.10
2022-09-30T02:16:19.974Z,1.63
2022-09-30T02:18:50.365Z,2.28
2022-09-30T02:21:21.858Z,2.90
2022-09-30T02:23:50.342Z,2.80
2022-09-30T02:26:29.590Z,3.15
2022-09-30T02:29:01.197Z,3.10
2022-09-30T02:31:29.317Z,3.40
2022-09-30T02:34:05.530Z,3.10
2022-09-30T02:36:35.567Z,3.60
2022-09-30T02:39:11.643Z,3.95
2022-09-30T02:41:44.795Z,3.50
2022-09-30T02:44:12.620Z,3.20
2022-09-30T02:46:39.879Z,3.50
2022-09-30T02:49:19.165Z,3.45
2022-09-30T02:51:56.684Z,3.10
2022-09-30T02:54:43.478Z,3.10
2022-09-30T02:57:36.858Z,4.30
2022-09-30T03:00:08.922Z,3.90
2022-09-30T03:02:39.203Z,18.27
2022-09-30T03:05:06.760Z,13.45
2022-09-30T03:07:35.215Z,6.47
2022-09-30T03:10:02.427Z,8.38
2022-09-30T03:12:35.795Z,4.78
2022-09-30T03:15:11.725Z,4.97
2022-09-30T03:17:39.207Z,4.97
2022-09-30T03:20:25.195Z,5.05
2022-09-30T03:23:15.267Z,4.82
2022-09-30T03:25:48.254Z,4.55
2022-09-30T03:28:29.612Z,4.53
2022-09-30T03:31:05.983Z,4.05
2022-09-30T03:33:44.247Z,4.80
2022-09-30T03:36:17.201Z,4.55
2022-09-30T03:39:05.745Z,4.60
2022-09-30T03:41:50.075Z,4.97
2022-09-30T03:44:24.608Z,4.20
2022-09-30T03:46:57.878Z,5.15
2022-09-30T03:49:31.220Z,5.45
2022-09-30T03:51:59.555Z,5.78
2022-09-30T03:54:26.889Z,6.28
2022-09-30T03:56:54.324Z,6.50
2022-09-30T03:59:25.677Z,5.18
2022-09-30T04:01:53.729Z,4.95
2022-09-30T04:04:21.111Z,4.68
2022-09-30T04:06:48.396Z,5.55
2022-09-30T04:09:15.693Z,5.47
2022-09-30T04:11:43.212Z,5.35
2022-09-30T04:14:10.453Z,5.43
2022-09-30T04:16:38.778Z,5.43
2022-09-30T04:19:06.274Z,5.30
2022-09-30T04:21:33.511Z,5.28
2022-09-30T04:24:00.769Z,4.95
2022-09-30T04:26:28.321Z,5.05
2022-09-30T04:28:58.583Z,5.28
2022-09-30T04:31:26.301Z,5.18
2022-09-30T04:33:54.009Z,4.93
2022-09-30T04:36:21.310Z,4.50
2022-09-30T04:38:48.513Z,4.63
2022-09-30T04:41:17.976Z,4.28
2022-09-30T04:43:46.814Z,4.50
2022-09-30T04:46:14.671Z,4.45
2022-09-30T04:48:45.795Z,4.50
2022-09-30T04:51:14.353Z,4.57
2022-09-30T04:53:41.815Z,4.10
2022-09-30T04:56:09.474Z,5.15
2022-09-30T04:58:37.377Z,4.60
2022-09-30T05:01:04.738Z,4.95
2022-09-30T05:03:32.255Z,4.30
2022-09-30T05:05:59.618Z,4.80
2022-09-30T05:08:27.034Z,4.50
2022-09-30T05:10:57.339Z,4.78
2022-09-30T05:13:25.827Z,4.57
2022-09-30T05:15:53.254Z,4.25
2022-09-30T05:18:21.266Z,4.40
2022-09-30T05:20:52.098Z,4.60
2022-09-30T05:23:20.447Z,5.18
2022-09-30T05:25:48.687Z,4.80
2022-09-30T05:28:16.009Z,4.65
2022-09-30T05:30:43.796Z,5.07
2022-09-30T05:33:11.821Z,4.88
2022-09-30T05:35:40.343Z,4.80
2022-09-30T05:38:09.799Z,4.57
2022-09-30T05:40:40.830Z,4.85
2022-09-30T05:43:08.320Z,4.57
2022-09-30T05:45:35.704Z,5.22
2022-09-30T05:48:03.329Z,5.43
2022-09-30T05:50:30.943Z,5.20
2022-09-30T05:52:58.368Z,4.85
2022-09-30T05:55:25.686Z,4.80
2022-09-30T05:57:52.979Z,4.82
2022-09-30T06:00:20.658Z,5.30
2022-09-30T06:02:51.978Z,5.00
2022-09-30T06:05:19.422Z,5.55
2022-09-30T06:07:46.666Z,4.93
2022-09-30T06:10:14.532Z,4.68
2022-09-30T06:12:41.742Z,5.13
2022-09-30T06:15:09.411Z,4.80
2022-09-30T06:17:36.759Z,5.80
2022-09-30T06:20:05.582Z,5.55
2022-09-30T06:22:36.005Z,5.38
2022-09-30T06:25:06.954Z,4.78
2022-09-30T06:27:34.714Z,4.50
2022-09-30T06:30:02.046Z,4.72
2022-09-30T06:32:30.315Z,4.50
2022-09-30T06:34:57.628Z,4.13
2022-09-30T06:37:25.311Z,4.80
2022-09-30T06:39:52.755Z,4.70
2022-09-30T06:42:20.241Z,4.90
2022-09-30T06:44:52.602Z,4.78
2022-09-30T06:47:25.549Z,5.07
2022-09-30T06:49:58.498Z,4.90
2022-09-30T06:52:26.966Z,5.20
2022-09-30T06:54:56.793Z,4.97
2022-09-30T06:57:26.714Z,5.10
2022-09-30T06:59:57.270Z,5.57
2022-09-30T07:02:24.688Z,5.45
2022-09-30T07:04:51.950Z,5.78
2022-09-30T07:07:22.390Z,6.70
2022-09-30T07:09:49.721Z,5.75
2022-09-30T07:12:17.281Z,6.57
2022-09-30T07:14:44.893Z,6.45
2022-09-30T07:17:12.242Z,5.38
2022-09-30T07:19:39.608Z,5.40
2022-09-30T07:22:25.725Z,5.00
2022-09-30T07:24:53.002Z,5.15
2022-09-30T07:27:21.021Z,4.95
2022-09-30T07:30:08.413Z,5.30
2022-09-30T07:32:35.866Z,4.90
2022-09-30T07:35:03.548Z,5.53
2022-09-30T07:37:36.001Z,4.95
2022-09-30T07:40:05.706Z,4.80
2022-09-30T07:42:33.201Z,5.30
2022-09-30T07:45:00.818Z,5.00
2022-09-30T07:47:28.641Z,4.95
2022-09-30T07:49:56.006Z,4.88
2022-09-30T07:52:23.299Z,5.15
2022-09-30T07:54:51.140Z,4.85
2022-09-30T07:57:18.589Z,4.80
2022-09-30T07:59:45.961Z,4.93
2022-09-30T08:02:17.921Z,4.07
2022-09-30T08:04:45.741Z,4.32
2022-09-30T08:07:14.331Z,4.18
2022-09-30T08:09:41.962Z,3.80
2022-09-30T08:12:09.665Z,4.25
2022-09-30T08:14:36.982Z,4.57
2022-09-30T08:17:04.527Z,4.70
2022-09-30T08:19:33.738Z,4.05
2022-09-30T08:24:33.514Z,4.43
2022-09-30T08:27:00.731Z,4.82
2022-09-30T08:29:54.609Z,5.00
2022-09-30T08:32:15.605Z,4.85
2022-09-30T08:34:42.912Z,4.55
2022-09-30T08:37:10.491Z,4.70
2022-09-30T08:39:40.813Z,5.03
2022-09-30T08:42:41.338Z,5.40
2022-09-30T08:45:16.357Z,4.95
2022-09-30T08:47:43.629Z,5.82
2022-09-30T08:50:16.924Z,5.63
2022-09-30T08:52:50.921Z,5.63
2022-09-30T08:55:23.716Z,5.18
2022-09-30T08:57:51.581Z,6.00
2022-09-30T09:00:19.767Z,5.50
2022-09-30T09:02:52.447Z,5.80
2022-09-30T09:05:32.097Z,5.65
2022-09-30T09:08:06.077Z,5.40
2022-09-30T09:10:38.392Z,4.80
2022-09-30T09:13:08.610Z,5.15
2022-09-30T09:15:45.863Z,4.65
2022-09-30T09:18:28.746Z,4.85
2022-09-30T09:20:56.145Z,4.53
2022-09-30T09:23:23.711Z,4.40
2022-09-30T09:25:54.262Z,4.50
2022-09-30T09:28:49.173Z,4.50
2022-09-30T09:31:20.437Z,4.47
2022-09-30T09:33:47.462Z,5.10
2022-09-30T09:36:25.824Z,4.35
2022-09-30T09:38:58.353Z,4.38
2022-09-30T09:41:43.271Z,4.28
2022-09-30T09:44:34.759Z,4.53
2022-09-30T09:47:05.325Z,4.03
2022-09-30T09:49:40.100Z,3.90
2022-09-30T09:52:20.574Z,4.43
2022-09-30T09:54:52.955Z,4.10
2022-09-30T09:57:31.230Z,3.90
2022-09-30T10:02:30.077Z,3.75
2022-09-30T10:05:01.385Z,3.90
2022-09-30T10:07:30.906Z,3.60
2022-09-30T10:10:23.909Z,3.70
2022-09-30T10:12:51.356Z,4.22
2022-09-30T10:15:24.028Z,3.70
2022-09-30T10:17:59.129Z,3.58
2022-09-30T10:20:33.756Z,3.30
2022-09-30T10:23:08.662Z,3.17
2022-09-30T10:25:36.146Z,3.40
2022-09-30T10:28:20.198Z,3.20
2022-09-30T10:31:03.564Z,2.80
2022-09-30T10:33:45.940Z,2.92
2022-09-30T10:36:19.195Z,2.75
2022-09-30T10:39:02.580Z,3.25
2022-09-30T10:41:35.315Z,2.83
2022-09-30T10:44:05.591Z,2.30
2022-09-30T10:46:39.517Z,3.05
2022-09-30T10:49:12.189Z,2.30
2022-09-30T10:51:40.590Z,2.53
2022-09-30T10:54:07.439Z,2.70
2022-09-30T10:56:44.531Z,2.67
2022-09-30T10:59:19.933Z,2.70
2022-09-30T11:02:36.288Z,2.60
2022-09-30T11:05:15.365Z,2.88
2022-09-30T11:07:45.702Z,2.70
2022-09-30T11:10:46.308Z,2.47
2022-09-30T11:13:50.210Z,2.67
2022-09-30T11:16:30.047Z,2.28
2022-09-30T11:19:09.333Z,2.58
2022-09-30T11:21:39.889Z,2.42
2022-09-30T11:24:34.384Z,2.60
2022-09-30T11:27:04.044Z,2.43
2022-09-30T11:29:36.374Z,2.42
2022-09-30T11:32:31.348Z,2.20
2022-09-30T11:35:06.696Z,2.40
2022-09-30T11:37:36.280Z,2.30
2022-09-30T11:40:11.589Z,2.42
2022-09-30T11:43:12.815Z,2.00
2022-09-30T11:46:18.554Z,2.28
2022-09-30T11:51:45.865Z,2.60
2022-09-30T11:54:33.176Z,2.45
2022-09-30T11:57:31.014Z,2.20
2022-09-30T12:00:09.759Z,2.55
2022-09-30T12:02:41.266Z,2.38
2022-09-30T12:05:17.857Z,3.30
2022-09-30T12:07:56.146Z,2.97
2022-09-30T12:10:37.256Z,3.20
2022-09-30T12:13:12.404Z,3.45
2022-09-30T12:15:44.011Z,3.00
2022-09-30T12:18:21.581Z,2.80
2022-09-30T12:21:00.274Z,2.63
2022-09-30T12:23:43.723Z,2.70
2022-09-30T12:26:12.606Z,2.53
2022-09-30T12:29:23.116Z,2.60
2022-09-30T12:31:53.031Z,2.40
2022-09-30T12:34:29.537Z,2.80
2022-09-30T12:37:15.529Z,2.25
2022-09-30T12:40:01.422Z,2.78
2022-09-30T12:42:34.088Z,2.70
2022-09-30T12:45:33.077Z,3.70
2022-09-30T12:48:06.691Z,3.20
2022-09-30T12:50:41.445Z,3.35
2022-09-30T12:53:22.554Z,3.45
2022-09-30T12:55:50.233Z,3.10
2022-09-30T12:58:30.499Z,3.33
2022-09-30T13:01:03.066Z,3.20
2022-09-30T13:03:45.211Z,3.38
2022-09-30T13:06:15.662Z,3.70
2022-09-30T13:08:48.145Z,3.40
2022-09-30T13:11:44.649Z,3.65
2022-09-30T13:14:12.009Z,4.40
2022-09-30T13:16:58.133Z,3.80
2022-09-30T13:19:42.647Z,3.63
2022-09-30T13:22:21.929Z,3.53
2022-09-30T13:25:02.831Z,2.97
2022-09-30T13:27:42.837Z,2.90
2022-09-30T13:30:18.261Z,2.80
2022-09-30T13:32:48.030Z,2.60
2022-09-30T13:35:32.623Z,3.13
2022-09-30T13:38:14.789Z,2.60
2022-09-30T13:41:01.772Z,2.60
2022-09-30T13:44:02.521Z,2.33
2022-09-30T13:46:49.462Z,2.22
2022-09-30T13:49:29.878Z,2.30
2022-09-30T13:51:56.730Z,1.98
2022-09-30T13:54:40.344Z,2.25
2022-09-30T13:57:12.498Z,2.00
2022-09-30T14:00:01.010Z,2.20
2022-09-30T14:02:55.366Z,2.00
2022-09-30T14:05:53.188Z,1.65
2022-09-30T14:08:28.861Z,1.65
2022-09-30T14:11:12.490Z,1.98
2022-09-30T14:13:47.225Z,1.80
2022-09-30T14:19:22.888Z,1.77
2022-09-30T14:22:11.575Z,1.42
2022-09-30T14:24:40.343Z,1.60
2022-09-30T14:27:45.635Z,1.55
2022-09-30T14:30:19.141Z,1.60
2022-09-30T14:32:55.702Z,1.60
2022-09-30T14:35:34.595Z,1.73
2022-09-30T14:38:03.217Z,1.77
2022-09-30T14:40:33.208Z,1.60
2022-09-30T14:43:06.350Z,1.85
2022-09-30T14:45:37.671Z,1.60
2022-09-30T14:48:20.424Z,1.85
2022-09-30T14:50:50.673Z,1.98
2022-09-30T14:53:33.777Z,1.70
2022-09-30T14:56:02.348Z,2.20
2022-09-30T14:58:32.180Z,1.80
2022-09-30T15:01:19.150Z,1.80
2022-09-30T15:04:10.779Z,1.77
2022-09-30T15:06:41.176Z,2.05
2022-09-30T15:09:17.006Z,1.98
2022-09-30T15:11:44.729Z,2.00
2022-09-30T15:14:20.746Z,2.25
2022-09-30T15:16:55.903Z,2.13
2022-09-30T15:19:28.337Z,2.20
2022-09-30T15:21:57.906Z,2.40
2022-09-30T15:24:27.278Z,2.22
2022-09-30T15:26:55.576Z,1.90
2022-09-30T15:29:22.635Z,2.45
2022-09-30T15:32:15.680Z,2.20
2022-09-30T15:34:46.175Z,2.60
2022-09-30T15:37:25.337Z,2.13
2022-09-30T15:40:11.482Z,2.00
2022-09-30T15:42:38.456Z,1.70
2022-09-30T15:45:32.068Z,1.60
2022-09-30T15:48:06.797Z,1.55
2022-09-30T15:50:37.693Z,1.70
2022-09-30T15:53:28.766Z,2.00
2022-09-30T15:55:58.015Z,1.88
2022-09-30T15:58:41.517Z,1.70
2022-09-30T16:01:22.161Z,1.60
2022-09-30T16:03:57.646Z,1.42
2022-09-30T16:06:26.215Z,1.67
2022-09-30T16:09:17.910Z,1.75
2022-09-30T16:11:48.859Z,2.10
2022-09-30T16:14:22.710Z,3.38
2022-09-30T16:16:55.107Z,2.00
2022-09-30T16:19:24.499Z,1.85
2022-09-30T16:21:52.591Z,1.50
2022-09-30T16:24:22.761Z,1.60
2022-09-30T16:26:51.660Z,1.60
2022-09-30T16:29:18.688Z,1.85
2022-09-30T16:31:48.594Z,1.80
2022-09-30T16:34:27.295Z,1.98
2022-09-30T16:36:55.833Z,1.70
2022-09-30T16:39:22.637Z,1.95
2022-09-30T16:41:50.821Z,2.38
2022-09-30T16:44:17.723Z,1.90
2022-09-30T16:46:44.603Z,1.90
2022-09-30T16:49:20.897Z,2.25
2022-09-30T16:51:47.730Z,2.25
2022-09-30T16:54:14.542Z,1.70
2022-09-30T16:56:41.517Z,1.77
2022-09-30T16:59:14.294Z,1.77
2022-09-30T17:01:41.832Z,2.08
2022-09-30T17:04:12.867Z,1.90
2022-09-30T17:06:42.213Z,2.17
2022-09-30T17:09:08.969Z,1.83
2022-09-30T17:11:38.099Z,2.20
2022-09-30T17:14:05.822Z,1.88
2022-09-30T17:16:33.424Z,2.08
2022-09-30T17:19:00.589Z,2.25
2022-09-30T17:21:27.833Z,2.08
2022-09-30T17:23:55.572Z,2.25
2022-09-30T17:26:22.956Z,2.30
2022-09-30T17:28:49.805Z,2.10
2022-09-30T17:31:16.789Z,2.17
2022-09-30T17:33:43.834Z,2.53
2022-09-30T17:36:13.319Z,2.58
2022-09-30T17:38:40.618Z,2.50
2022-09-30T17:41:26.761Z,2.60
2022-09-30T17:43:53.704Z,2.53
2022-09-30T17:46:23.104Z,2.35
2022-09-30T17:48:54.542Z,2.67
2022-09-30T17:51:21.433Z,3.08
2022-09-30T17:53:49.253Z,2.90
2022-09-30T17:56:19.661Z,2.70
2022-09-30T17:58:49.006Z,2.60
2022-09-30T18:01:17.583Z,2.78
2022-09-30T18:03:47.664Z,2.88
2022-09-30T18:06:14.721Z,2.90
2022-09-30T18:08:41.736Z,3.30
2022-09-30T18:11:08.939Z,3.20
2022-09-30T18:13:35.967Z,3.00
2022-09-30T18:16:06.807Z,3.15
2022-09-30T18:18:36.611Z,3.40
2022-09-30T18:21:03.528Z,3.40
2022-09-30T18:23:30.416Z,3.20
2022-09-30T18:25:58.087Z,3.20
2022-09-30T18:28:25.272Z,2.97
2022-09-30T18:30:52.152Z,2.83
2022-09-30T18:33:21.702Z,2.75
2022-09-30T18:35:49.023Z,2.67
2022-09-30T18:38:15.942Z,2.28
2022-09-30T18:40:43.705Z,2.22
2022-09-30T18:43:13.969Z,2.25
2022-09-30T18:45:43.075Z,2.40
2022-09-30T18:48:10.870Z,2.20
2022-09-30T18:50:38.706Z,2.78
2022-09-30T18:53:09.795Z,2.40
2022-09-30T18:55:43.907Z,2.40
2022-09-30T18:58:10.853Z,2.37
2022-09-30T19:00:38.139Z,2.08
2022-09-30T19:03:05.341Z,2.03
2022-09-30T19:05:32.357Z,1.85
2022-09-30T19:07:59.349Z,2.00
2022-09-30T19:10:26.403Z,2.00
2022-09-30T19:12:53.263Z,2.13
2022-09-30T19:15:20.200Z,2.20
2022-09-30T19:17:50.519Z,1.95
2022-09-30T19:20:17.785Z,2.40
2022-09-30T19:22:45.558Z,1.98
2022-09-30T19:25:12.936Z,1.77
2022-09-30T19:27:41.255Z,1.80
2022-09-30T19:30:12.871Z,1.63
2022-09-30T19:32:40.266Z,2.65
2022-09-30T19:35:12.039Z,1.80
2022-09-30T19:37:43.049Z,1.95
2022-09-30T19:40:21.515Z,2.10
2022-09-30T19:42:50.036Z,2.00
2022-09-30T19:45:19.752Z,1.90
2022-09-30T19:47:48.211Z,2.10
2022-09-30T19:50:15.219Z,1.90
2022-09-30T19:52:54.112Z,2.03
2022-09-30T19:55:22.510Z,1.98
2022-09-30T19:57:49.404Z,2.42
2022-09-30T20:00:16.260Z,2.75
2022-09-30T20:02:43.181Z,2.10
2022-09-30T20:05:10.182Z,2.03
2022-09-30T20:07:37.099Z,2.08
2022-09-30T20:10:04.490Z,2.47
2022-09-30T20:12:31.355Z,2.53
2022-09-30T20:15:17.153Z,2.50
2022-09-30T20:17:44.100Z,2.40
2022-09-30T20:20:29.295Z,2.28
2022-09-30T20:22:59.328Z,2.90
2022-09-30T20:25:26.210Z,2.33
2022-09-30T20:27:53.108Z,2.30
2022-09-30T20:30:20.504Z,2.80
2022-09-30T20:32:47.377Z,2.65
2022-09-30T20:35:14.336Z,2.42
2022-09-30T20:37:42.397Z,2.70
2022-09-30T20:40:09.912Z,2.50
2022-09-30T20:42:38.456Z,2.67
2022-09-30T20:45:10.689Z,2.95
2022-09-30T20:47:38.492Z,3.10
2022-09-30T20:50:06.329Z,2.80
2022-09-30T20:52:33.815Z,2.80
2022-09-30T20:55:00.754Z,2.88
2022-09-30T20:57:31.809Z,2.50
2022-09-30T20:59:59.969Z,2.95
2022-09-30T21:02:27.901Z,2.78
2022-09-30T21:04:58.006Z,3.72
2022-09-30T21:07:25.836Z,2.75
2022-09-30T21:09:53.034Z,3.80
2022-09-30T21:12:20.122Z,3.20
2022-09-30T21:14:47.008Z,4.05
2022-09-30T21:17:13.910Z,3.20
2022-09-30T21:19:40.788Z,3.00
2022-09-30T21:22:08.102Z,3.08
2022-09-30T21:24:34.995Z,3.20
2022-09-30T21:27:05.777Z,3.78
2022-09-30T21:29:32.904Z,3.45
2022-09-30T21:32:00.284Z,3.78
2022-09-30T21:34:28.155Z,3.50
2022-09-30T21:36:55.057Z,3.72
2022-09-30T21:39:21.949Z,3.47
2022-09-30T21:41:49.001Z,3.67
2022-09-30T21:44:16.798Z,3.72
2022-09-30T21:46:48.250Z,4.50
2022-09-30T21:49:21.323Z,3.95
2022-09-30T21:51:48.285Z,4.22
2022-09-30T21:54:15.290Z,8.35
2022-09-30T21:56:43.618Z,4.82
2022-09-30T21:59:11.642Z,4.07
2022-09-30T22:01:39.519Z,3.60
2022-09-30T22:04:07.119Z,4.20
2022-09-30T22:06:34.072Z,3.42
2022-09-30T22:09:01.636Z,4.25
2022-09-30T22:11:30.955Z,4.38
2022-09-30T22:13:59.428Z,4.00
2022-09-30T22:16:29.658Z,3.70
2022-09-30T22:19:00.236Z,3.85
2022-09-30T22:21:34.420Z,3.90
2022-09-30T22:24:03.394Z,4.18
2022-09-30T22:26:31.880Z,3.85
2022-09-30T22:29:01.785Z,3.90
2022-09-30T22:31:31.408Z,3.55
2022-09-30T22:34:20.440Z,3.92
2022-09-30T22:37:06.240Z,3.63
2022-09-30T22:39:33.545Z,3.42
2022-09-30T22:42:00.690Z,3.78
2022-09-30T22:44:31.888Z,3.55
2022-09-30T22:47:00.159Z,3.67
2022-09-30T22:49:32.677Z,3.65
2022-09-30T22:52:01.843Z,3.17
2022-09-30T22:54:29.365Z,3.58
2022-09-30T22:56:58.461Z,3.42
2022-09-30T22:59:26.333Z,3.40
2022-09-30T23:01:53.652Z,3.45
2022-09-30T23:04:20.691Z,2.97
2022-09-30T23:06:49.540Z,2.90
2022-09-30T23:09:17.495Z,3.58
2022-09-30T23:11:48.544Z,2.80
2022-09-30T23:14:16.377Z,3.17
2022-09-30T23:16:43.638Z,3.60
2022-09-30T23:19:11.033Z,3.78
2022-09-30T23:21:38.428Z,3.65
2022-09-30T23:24:05.842Z,3.33
2022-09-30T23:26:34.233Z,3.50
2022-09-30T23:29:06.196Z,3.53
2022-09-30T23:31:34.160Z,3.35
2022-09-30T23:34:02.661Z,3.40
2022-09-30T23:36:31.091Z,3.10
2022-09-30T23:39:02.780Z,3.60
2022-09-30T23:41:30.901Z,3.15
2022-09-30T23:43:58.705Z,3.97
2022-09-30T23:46:26.154Z,3.00
2022-09-30T23:48:53.735Z,3.58
2022-09-30T23:51:21.060Z,3.95
2022-09-30T23:53:48.332Z,4.10
2022-09-30T23:56:16.858Z,4.63
2022-09-30T23:58:44.694Z,5.50
